Time,TemperatureF,DewpointF,PressureIn,WindDirection,WindDirectionDegrees,WindSpeedMPH,WindSpeedGustMPH,Humidity,HourlyPrecipIn,Conditions,Clouds,dailyrainin,SoftwareType,DateUTC
2013-08-06 00:02:00,74.0,70.6,29.72,SSE,163,0.0,0.0,89,0.00,RA,FEW,0.00,WeatherDisplay:10.37,2013-08-06 05:02:00,
2013-08-06 00:07:00,73.9,70.5,29.72,SSE,163,0.0,0.1,89,0.00,RA,FEW,0.00,WeatherDisplay:10.37,2013-08-06 05:07:00,
2013-08-06 00:14:00,73.7,70.6,29.72,SSE,163,0.0,0.0,90,0.00,,FEW,0.00,WeatherDisplay:10.37,2013-08-06 05:14:00,
2013-08-06 00:19:00,73.9,70.8,29.72,SSE,163,2.3,0.0,90,0.00,,FEW,0.00,WeatherDisplay:10.37,2013-08-06 05:19:00,
2013-08-06 00:24:00,73.9,70.8,29.72,SSE,163,0.0,0.1,90,0.00,,FEW,0.00,WeatherDisplay:10.37,2013-08-06 05:24:00,
2013-08-06 00:29:00,73.7,70.6,29.72,SSE,163,0.0,0.0,90,0.00,,FEW,0.00,WeatherDisplay:10.37,2013-08-06 05:29:00,
2013-08-06 00:34:00,73.7,70.6,29.72,SSE,163,0.0,0.0,90,0.00,,FEW,0.00,WeatherDisplay:10.37,2013-08-06 05:34:00,
2013-08-06 00:39:00,73.7,70.6,29.71,SSE,163,0.0,0.0,90,0.00,,FEW,0.00,WeatherDisplay:10.37,2013-08-06 05:39:00,
2013-08-06 00:45:00,73.5,70.4,29.71,SSE,163,0.0,0.0,90,0.00,,FEW,0.00,WeatherDisplay:10.37,2013-08-06 05:45:00,
2013-08-06 00:50:00,73.5,70.7,29.71,SSE,163,1.2,0.0,91,0.00,,FEW,0.00,WeatherDisplay:10.37,2013-08-06 05:50:00,
2013-08-06 00:55:00,73.5,70.7,29.71,SSE,163,0.0,0.0,91,0.00,,FEW,0.00,WeatherDisplay:10.37,2013-08-06 05:55:00,
2013-08-06 01:00:00,73.3,70.5,29.70,SSE,163,1.2,0.0,91,0.00,,FEW,0.00,WeatherDisplay:10.37,2013-08-06 06:00:00,
2013-08-06 01:05:00,73.3,70.5,29.70,SSE,163,0.0,0.0,91,0.00,,FEW,0.00,WeatherDisplay:10.37,2013-08-06 06:05:00,
2013-08-06 01:10:00,73.3,70.5,29.71,SSE,163,0.0,0.0,91,0.00,,FEW,0.00,WeatherDisplay:10.37,2013-08-06 06:10:00,
2013-08-06 01:17:00,73.2,70.4,29.70,SSE,163,0.0,0.1,91,0.00,,FEW,0.00,WeatherDisplay:10.37,2013-08-06 06:17:00,
2013-08-06 01:22:00,73.2,70.4,29.70,SSE,163,0.0,0.0,91,0.00,,FEW,0.00,WeatherDisplay:10.37,2013-08-06 06:22:00,
2013-08-06 01:27:00,73.0,70.2,29.70,SSE,163,0.0,0.0,91,0.00,,FEW,0.00,WeatherDisplay:10.37,2013-08-06 06:27:00,
2013-08-06 01:32:00,73.0,70.2,29.70,SSE,163,0.0,0.0,91,0.00,,FEW,0.00,WeatherDisplay:10.37,2013-08-06 06:32:00,
2013-08-06 01:37:00,73.0,70.2,29.69,SSE,163,0.0,0.0,91,0.00,,FEW,0.00,WeatherDisplay:10.37,2013-08-06 06:37:00,
2013-08-06 01:42:00,72.8,70.0,29.68,SSE,163,1.2,0.0,91,0.00,,FEW,0.00,WeatherDisplay:10.37,2013-08-06 06:42:00,
2013-08-06 01:47:00,72.8,70.0,29.68,SSE,163,0.0,0.0,91,0.00,,FEW,0.00,WeatherDisplay:10.37,2013-08-06 06:47:00,
2013-08-06 01:54:00,72.7,69.9,29.67,SSE,163,0.0,0.0,91,0.00,CLR,FEW,0.00,WeatherDisplay:10.37,2013-08-06 06:54:00,
2013-08-06 01:59:00,72.7,69.9,29.66,SSE,163,0.0,0.0,91,0.00,,FEW,0.00,WeatherDisplay:10.37,2013-08-06 06:59:00,
2013-08-06 02:04:00,72.7,70.2,29.66,SSE,163,0.0,0.0,92,0.00,,FEW,0.00,WeatherDisplay:10.37,2013-08-06 07:04:00,
2013-08-06 02:09:00,72.7,70.2,29.65,SSE,163,0.0,0.0,92,0.00,,FEW,0.00,WeatherDisplay:10.37,2013-08-06 07:09:00,
2013-08-06 02:14:00,72.7,70.2,29.65,SSE,163,0.0,0.0,92,0.00,,FEW,0.00,WeatherDisplay:10.37,2013-08-06 07:14:00,
2013-08-06 02:19:00,72.7,70.2,29.66,SSE,163,1.0,1.0,92,0.00,,FEW,0.00,WeatherDisplay:10.37,2013-08-06 07:19:00,
2013-08-06 02:26:00,73.0,70.5,29.66,SSE,163,0.0,0.0,92,0.00,,FEW,0.00,WeatherDisplay:10.37,2013-08-06 07:26:00,
2013-08-06 02:31:00,73.0,70.5,29.67,SSE,163,1.2,0.0,92,0.00,,FEW,0.00,WeatherDisplay:10.37,2013-08-06 07:31:00,
2013-08-06 02:36:00,73.2,70.7,29.68,SSE,163,0.0,0.0,92,0.00,,FEW,0.00,WeatherDisplay:10.37,2013-08-06 07:36:00,
2013-08-06 02:41:00,73.3,71.2,29.68,SSE,163,0.0,0.0,93,0.00,,FEW,0.00,WeatherDisplay:10.37,2013-08-06 07:41:00,
2013-08-06 02:46:00,73.5,71.4,29.68,SSE,163,0.0,0.0,93,0.00,,FEW,0.00,WeatherDisplay:10.37,2013-08-06 07:46:00,
2013-08-06 02:51:00,73.5,71.4,29.68,SSE,163,0.0,0.0,93,0.00,,FEW,0.00,WeatherDisplay:10.37,2013-08-06 07:51:00,
2013-08-06 02:58:00,73.3,70.8,29.67,SSE,163,0.0,0.0,92,0.00,,FEW,0.00,WeatherDisplay:10.37,2013-08-06 07:58:00,
2013-08-06 03:03:00,73.2,70.7,29.67,SSE,163,0.0,0.0,92,0.00,,FEW,0.00,WeatherDisplay:10.37,2013-08-06 08:03:00,
2013-08-06 03:08:00,73.0,70.5,29.67,SSE,163,0.0,0.0,92,0.00,,FEW,0.00,WeatherDisplay:10.37,2013-08-06 08:08:00,
2013-08-06 03:13:00,72.8,70.3,29.67,SSE,163,0.0,0.0,92,0.00,,FEW,0.00,WeatherDisplay:10.37,2013-08-06 08:13:00,
2013-08-06 03:18:00,72.8,70.3,29.66,SSE,163,0.0,0.0,92,0.00,,FEW,0.00,WeatherDisplay:10.37,2013-08-06 08:18:00,
2013-08-06 03:23:00,72.8,70.7,29.66,SSE,163,0.0,0.0,93,0.00,,FEW,0.00,WeatherDisplay:10.37,2013-08-06 08:23:00,
2013-08-06 03:29:00,73.3,71.2,29.66,SSE,163,0.0,0.0,93,0.00,CLR,FEW,0.00,WeatherDisplay:10.37,2013-08-06 08:29:00,
2013-08-06 03:34:00,73.7,71.5,29.66,SSE,163,0.0,0.0,93,0.00,,FEW,0.00,WeatherDisplay:10.37,2013-08-06 08:34:00,
2013-08-06 03:39:00,73.7,71.5,29.67,SSE,163,0.0,0.0,93,0.00,,FEW,0.00,WeatherDisplay:10.37,2013-08-06 08:39:00,
2013-08-06 03:44:00,74.0,72.2,29.69,NW,325,6.9,6.9,94,0.00,,FEW,0.00,WeatherDisplay:10.37,2013-08-06 08:44:00,
2013-08-06 03:49:00,74.6,72.8,29.69,North,5,4.6,4.6,94,0.00,,FEW,0.00,WeatherDisplay:10.37,2013-08-06 08:49:00,
2013-08-06 03:54:00,74.9,73.1,29.69,NW,307,4.0,4.0,94,0.01,RA,FEW,0.01,WeatherDisplay:10.37,2013-08-06 08:54:00,
2013-08-06 04:02:00,74.9,73.1,29.69,WNW,283,12.0,12.0,94,0.01,RA,FEW,0.01,WeatherDisplay:10.37,2013-08-06 09:02:00,
2013-08-06 04:07:00,74.2,71.7,29.70,WNW,297,9.2,9.2,92,0.01,,FEW,0.01,WeatherDisplay:10.37,2013-08-06 09:07:00,
2013-08-06 04:12:00,73.9,71.1,29.71,WNW,294,12.7,12.7,91,0.01,,FEW,0.01,WeatherDisplay:10.37,2013-08-06 09:12:00,
2013-08-06 04:17:00,73.5,70.4,29.72,North,5,10.4,10.4,90,0.01,,FEW,0.01,WeatherDisplay:10.37,2013-08-06 09:17:00,
2013-08-06 04:22:00,73.5,70.4,29.72,NNW,343,9.2,9.2,90,0.01,,FEW,0.01,WeatherDisplay:10.37,2013-08-06 09:22:00,
2013-08-06 04:27:00,73.3,70.2,29.72,NW,321,3.5,3.5,90,0.01,,FEW,0.01,WeatherDisplay:10.37,2013-08-06 09:27:00,
2013-08-06 04:34:00,73.2,70.1,29.70,NNW,337,1.0,1.0,90,0.01,,FEW,0.01,WeatherDisplay:10.37,2013-08-06 09:34:00,
2013-08-06 04:39:00,73.0,69.9,29.70,West,267,5.8,5.8,90,0.02,RA,FEW,0.02,WeatherDisplay:10.37,2013-08-06 09:39:00,
2013-08-06 04:44:00,72.8,69.7,29.70,NNE,26,2.3,2.3,90,0.02,RA,FEW,0.02,WeatherDisplay:10.37,2013-08-06 09:44:00,
2013-08-06 04:49:00,72.7,69.6,29.71,North,360,4.6,4.6,90,0.02,,FEW,0.02,WeatherDisplay:10.37,2013-08-06 09:49:00,
2013-08-06 04:54:00,72.7,69.6,29.71,North,5,2.0,2.0,90,0.02,,FEW,0.02,WeatherDisplay:10.37,2013-08-06 09:54:00,
2013-08-06 04:59:00,72.5,69.4,29.70,North,9,2.3,2.3,90,0.01,,FEW,0.02,WeatherDisplay:10.37,2013-08-06 09:59:00,
2013-08-06 05:04:00,72.3,69.2,29.70,WNW,296,11.5,0.0,90,0.01,CLR,FEW,0.02,WeatherDisplay:10.37,2013-08-06 10:04:00,
2013-08-06 05:09:00,72.3,69.5,29.70,WNW,296,2.3,2.3,91,0.01,,FEW,0.02,WeatherDisplay:10.37,2013-08-06 10:09:00,
2013-08-06 05:14:00,72.1,69.3,29.70,NNW,328,5.8,5.8,91,0.01,,FEW,0.02,WeatherDisplay:10.37,2013-08-06 10:14:00,
2013-08-06 05:19:00,72.0,69.2,29.71,North,5,5.0,5.0,91,0.02,RA,FEW,0.03,WeatherDisplay:10.37,2013-08-06 10:19:00,
2013-08-06 05:24:00,71.8,69.0,29.70,North,360,2.3,0.0,91,0.02,RA,FEW,0.03,WeatherDisplay:10.37,2013-08-06 10:24:00,
2013-08-06 05:29:00,71.8,69.3,29.70,North,360,0.0,0.0,92,0.02,,FEW,0.03,WeatherDisplay:10.37,2013-08-06 10:29:00,
2013-08-06 05:36:00,71.6,69.2,29.70,North,360,2.3,0.0,92,0.02,CLR,FEW,0.03,WeatherDisplay:10.37,2013-08-06 10:36:00,
2013-08-06 05:41:00,71.6,69.2,29.70,North,360,2.3,2.3,92,0.01,,FEW,0.03,WeatherDisplay:10.37,2013-08-06 10:41:00,
2013-08-06 05:46:00,71.5,69.1,29.70,North,360,0.0,0.0,92,0.02,RA,FEW,0.04,WeatherDisplay:10.37,2013-08-06 10:46:00,
2013-08-06 05:51:00,71.5,69.1,29.70,North,360,0.0,0.0,92,0.02,RA,FEW,0.04,WeatherDisplay:10.37,2013-08-06 10:51:00,
2013-08-06 05:56:00,71.5,69.1,29.70,North,360,0.0,0.0,92,0.02,,FEW,0.04,WeatherDisplay:10.37,2013-08-06 10:56:00,
2013-08-06 06:01:00,71.6,69.5,29.70,North,360,1.2,0.0,93,0.02,,FEW,0.04,WeatherDisplay:10.37,2013-08-06 11:01:00,
2013-08-06 06:09:00,71.6,69.5,29.71,North,360,0.0,0.0,93,0.02,,FEW,0.04,WeatherDisplay:10.37,2013-08-06 11:09:00,
2013-08-06 06:14:00,71.5,69.4,29.72,North,360,0.0,0.0,93,0.02,,FEW,0.04,WeatherDisplay:10.37,2013-08-06 11:14:00,
2013-08-06 06:19:00,71.5,69.4,29.72,North,360,0.0,0.0,93,0.02,,FEW,0.04,WeatherDisplay:10.37,2013-08-06 11:19:00,
2013-08-06 06:24:00,71.3,69.2,29.72,North,360,0.0,0.0,93,0.01,,FEW,0.04,WeatherDisplay:10.37,2013-08-06 11:24:00,
2013-08-06 06:29:00,71.5,69.4,29.72,North,11,2.3,2.3,93,0.01,,FEW,0.04,WeatherDisplay:10.37,2013-08-06 11:29:00,
2013-08-06 06:34:00,71.5,69.4,29.72,North,11,0.0,0.0,93,0.01,,FEW,0.04,WeatherDisplay:10.37,2013-08-06 11:34:00,
2013-08-06 06:40:00,71.3,69.2,29.72,North,11,0.0,0.0,93,0.01,,FEW,0.04,WeatherDisplay:10.37,2013-08-06 11:40:00,
2013-08-06 06:45:00,71.3,69.2,29.73,North,11,0.0,0.1,93,0.01,,FEW,0.04,WeatherDisplay:10.37,2013-08-06 11:45:00,
2013-08-06 06:50:00,71.3,69.2,29.73,North,11,0.0,0.0,93,0.00,,FEW,0.04,WeatherDisplay:10.37,2013-08-06 11:50:00,
2013-08-06 06:55:00,71.3,69.2,29.73,North,11,0.0,0.0,93,0.00,,FEW,0.04,WeatherDisplay:10.37,2013-08-06 11:55:00,
2013-08-06 07:00:00,71.1,69.0,29.73,North,11,0.0,0.0,93,0.00,,FEW,0.04,WeatherDisplay:10.37,2013-08-06 12:00:00,
2013-08-06 07:05:00,71.3,69.5,29.73,North,11,0.0,0.0,94,0.00,,FEW,0.04,WeatherDisplay:10.37,2013-08-06 12:05:00,
2013-08-06 07:11:00,71.3,69.5,29.73,NNE,22,1.2,0.0,94,0.00,CLR,FEW,0.04,WeatherDisplay:10.37,2013-08-06 12:11:00,
2013-08-06 07:16:00,71.3,69.5,29.73,NE,49,4.0,4.0,94,0.00,,FEW,0.04,WeatherDisplay:10.37,2013-08-06 12:16:00,
2013-08-06 07:21:00,71.1,69.3,29.73,ENE,62,3.5,3.5,94,0.00,,FEW,0.04,WeatherDisplay:10.37,2013-08-06 12:21:00,
2013-08-06 07:26:00,71.1,69.3,29.73,ESE,117,3.5,3.5,94,0.00,,FEW,0.04,WeatherDisplay:10.37,2013-08-06 12:26:00,
2013-08-06 07:31:00,71.3,69.5,29.73,ESE,122,0.0,1.0,94,0.00,,FEW,0.04,WeatherDisplay:10.37,2013-08-06 12:31:00,
2013-08-06 07:36:00,71.3,69.5,29.73,East,91,4.6,4.6,94,0.00,,FEW,0.04,WeatherDisplay:10.37,2013-08-06 12:36:00,
2013-08-06 07:41:00,71.1,69.3,29.73,East,92,4.6,4.6,94,0.00,,FEW,0.04,WeatherDisplay:10.37,2013-08-06 12:41:00,
2013-08-06 07:46:00,71.3,69.5,29.74,East,92,1.2,1.2,94,0.00,,FEW,0.04,WeatherDisplay:10.37,2013-08-06 12:46:00,
2013-08-06 07:51:00,71.3,69.5,29.75,ESE,113,2.3,2.3,94,0.00,,FEW,0.04,WeatherDisplay:10.37,2013-08-06 12:51:00,
2013-08-06 07:56:00,71.3,69.5,29.75,ESE,113,0.0,0.2,94,0.00,,FEW,0.05,WeatherDisplay:10.37,2013-08-06 12:56:00,
2013-08-06 08:02:00,71.5,69.7,29.75,ESE,115,5.8,5.8,94,0.02,RA,FEW,0.06,WeatherDisplay:10.37,2013-08-06 13:02:00,
2013-08-06 08:07:00,71.5,69.7,29.75,ESE,111,2.3,2.3,94,0.02,RA,FEW,0.06,WeatherDisplay:10.37,2013-08-06 13:07:00,
2013-08-06 08:11:00,71.5,69.7,29.75,ESE,111,0.0,0.0,94,0.02,,FEW,0.06,WeatherDisplay:10.37,2013-08-06 13:11:00,
2013-08-06 08:17:00,71.5,69.7,29.76,ESE,112,3.5,3.5,94,0.02,,FEW,0.06,WeatherDisplay:10.37,2013-08-06 13:17:00,
2013-08-06 08:22:00,71.5,69.7,29.76,ESE,113,4.6,4.6,94,0.02,,FEW,0.06,WeatherDisplay:10.37,2013-08-06 13:22:00,
2013-08-06 08:27:00,71.3,69.5,29.76,ESE,108,1.2,1.2,94,0.02,,FEW,0.06,WeatherDisplay:10.37,2013-08-06 13:27:00,
2013-08-06 08:32:00,71.1,69.3,29.76,ESE,113,3.5,3.5,94,0.02,,FEW,0.06,WeatherDisplay:10.37,2013-08-06 13:32:00,
2013-08-06 08:37:00,70.9,69.1,29.76,ENE,63,5.8,5.8,94,0.03,RA,FEW,0.07,WeatherDisplay:10.37,2013-08-06 13:37:00,
2013-08-06 08:42:00,70.8,69.0,29.76,ESE,107,4.6,4.6,94,0.03,RA,FEW,0.07,WeatherDisplay:10.37,2013-08-06 13:42:00,
2013-08-06 08:47:00,70.8,69.0,29.76,ESE,104,4.6,4.6,94,0.03,,FEW,0.07,WeatherDisplay:10.37,2013-08-06 13:47:00,
2013-08-06 08:52:00,70.4,68.6,29.77,SE,138,2.3,2.3,94,0.03,,FEW,0.07,WeatherDisplay:10.37,2013-08-06 13:52:00,
2013-08-06 08:57:00,70.4,68.6,29.76,East,92,3.5,3.5,94,0.02,,FEW,0.07,WeatherDisplay:10.37,2013-08-06 13:57:00,
2013-08-06 09:02:00,70.4,68.6,29.77,ESE,109,3.5,3.5,94,0.01,,FEW,0.07,WeatherDisplay:10.37,2013-08-06 14:02:00,
2013-08-06 09:07:00,70.4,68.6,29.77,ESE,108,1.2,1.2,94,0.02,RA,FEW,0.08,WeatherDisplay:10.37,2013-08-06 14:07:00,
2013-08-06 09:12:00,70.4,68.9,29.77,ESE,108,1.2,1.2,95,0.02,RA,FEW,0.08,WeatherDisplay:10.37,2013-08-06 14:12:00,
2013-08-06 09:17:00,70.6,69.1,29.77,East,95,6.9,6.9,95,0.02,,FEW,0.08,WeatherDisplay:10.37,2013-08-06 14:17:00,
2013-08-06 09:22:00,70.6,69.1,29.77,East,92,1.2,0.0,95,0.02,,FEW,0.08,WeatherDisplay:10.37,2013-08-06 14:22:00,
2013-08-06 09:27:00,70.8,69.3,29.77,ESE,107,5.8,5.8,95,0.02,,FEW,0.08,WeatherDisplay:10.37,2013-08-06 14:27:00,
2013-08-06 09:32:00,70.6,69.1,29.78,SE,126,9.2,9.2,95,0.02,,FEW,0.08,WeatherDisplay:10.37,2013-08-06 14:32:00,
2013-08-06 09:37:00,70.6,69.1,29.78,East,89,4.6,4.6,95,0.01,,FEW,0.08,WeatherDisplay:10.37,2013-08-06 14:37:00,
2013-08-06 09:42:00,70.8,69.3,29.78,SSE,156,3.5,3.5,95,0.01,,FEW,0.08,WeatherDisplay:10.37,2013-08-06 14:42:00,
2013-08-06 09:47:00,70.8,69.3,29.78,East,90,2.3,2.3,95,0.01,,FEW,0.08,WeatherDisplay:10.37,2013-08-06 14:47:00,
2013-08-06 09:52:00,70.9,69.4,29.78,ENE,74,0.0,0.0,95,0.01,,FEW,0.08,WeatherDisplay:10.37,2013-08-06 14:52:00,
2013-08-06 09:57:00,70.9,69.4,29.78,SE,129,1.2,1.2,95,0.01,,FEW,0.08,WeatherDisplay:10.37,2013-08-06 14:57:00,
2013-08-06 10:02:00,71.1,69.6,29.77,ENE,73,3.5,3.5,95,0.01,,FEW,0.08,WeatherDisplay:10.37,2013-08-06 15:02:00,
2013-08-06 10:07:00,71.1,69.6,29.78,East,90,3.5,3.5,95,0.00,,FEW,0.08,WeatherDisplay:10.37,2013-08-06 15:07:00,
2013-08-06 10:12:00,71.1,69.6,29.78,East,94,2.3,0.0,95,0.00,,FEW,0.08,WeatherDisplay:10.37,2013-08-06 15:12:00,
2013-08-06 10:17:00,70.8,69.0,29.77,South,190,2.3,2.3,94,0.00,,FEW,0.08,WeatherDisplay:10.37,2013-08-06 15:17:00,
2013-08-06 10:22:00,70.6,68.8,29.78,ESE,115,1.2,0.0,94,0.00,,FEW,0.08,WeatherDisplay:10.37,2013-08-06 15:22:00,
2013-08-06 10:27:00,70.4,68.6,29.78,ESE,118,0.0,0.0,94,0.00,,FEW,0.08,WeatherDisplay:10.37,2013-08-06 15:27:00,
2013-08-06 10:32:00,70.3,68.5,29.79,SE,127,3.5,3.5,94,0.00,,FEW,0.08,WeatherDisplay:10.37,2013-08-06 15:32:00,
2013-08-06 10:37:00,70.1,68.3,29.79,ESE,114,3.5,3.5,94,0.00,,FEW,0.08,WeatherDisplay:10.37,2013-08-06 15:37:00,
2013-08-06 10:42:00,70.3,68.5,29.78,SE,130,3.5,3.5,94,0.00,,FEW,0.08,WeatherDisplay:10.37,2013-08-06 15:42:00,
2013-08-06 10:47:00,70.4,68.9,29.78,East,89,3.5,3.5,95,0.00,,FEW,0.08,WeatherDisplay:10.37,2013-08-06 15:47:00,
2013-08-06 10:52:00,70.6,69.1,29.78,ENE,78,5.8,5.8,95,0.00,,FEW,0.08,WeatherDisplay:10.37,2013-08-06 15:52:00,
2013-08-06 10:57:00,70.8,69.0,29.79,SE,139,2.0,2.0,94,0.00,,FEW,0.08,WeatherDisplay:10.37,2013-08-06 15:57:00,
2013-08-06 11:02:00,70.6,68.8,29.79,ESE,115,10.4,10.4,94,0.00,,FEW,0.08,WeatherDisplay:10.37,2013-08-06 16:02:00,
2013-08-06 11:07:00,70.6,68.8,29.79,ENE,71,3.5,3.5,94,0.00,,FEW,0.08,WeatherDisplay:10.37,2013-08-06 16:07:00,
2013-08-06 11:12:00,70.6,68.8,29.79,East,82,4.0,4.0,94,0.00,,FEW,0.08,WeatherDisplay:10.37,2013-08-06 16:12:00,
2013-08-06 11:17:00,70.8,69.0,29.79,SE,124,3.5,3.5,94,0.00,,FEW,0.08,WeatherDisplay:10.37,2013-08-06 16:17:00,
2013-08-06 11:22:00,70.6,68.8,29.79,ESE,110,3.5,3.5,94,0.00,,FEW,0.08,WeatherDisplay:10.37,2013-08-06 16:22:00,
2013-08-06 11:27:00,70.8,69.0,29.79,ESE,108,4.6,4.6,94,0.00,,FEW,0.08,WeatherDisplay:10.37,2013-08-06 16:27:00,
2013-08-06 11:32:00,71.3,69.5,29.79,ESE,118,4.6,4.6,94,0.00,,FEW,0.08,WeatherDisplay:10.37,2013-08-06 16:32:00,
2013-08-06 11:37:00,71.6,69.5,29.78,ENE,77,5.8,5.8,93,0.00,,FEW,0.08,WeatherDisplay:10.37,2013-08-06 16:37:00,
2013-08-06 11:42:00,71.6,69.5,29.78,ESE,123,3.5,0.0,93,0.00,,FEW,0.08,WeatherDisplay:10.37,2013-08-06 16:42:00,
2013-08-06 11:47:00,71.8,69.7,29.78,ESE,120,3.5,3.5,93,0.00,,FEW,0.08,WeatherDisplay:10.37,2013-08-06 16:47:00,
2013-08-06 11:52:00,72.3,69.8,29.78,East,98,3.5,3.5,92,0.00,,FEW,0.08,WeatherDisplay:10.37,2013-08-06 16:52:00,
2013-08-06 11:57:00,72.5,70.0,29.78,East,83,10.4,10.4,92,0.00,,FEW,0.08,WeatherDisplay:10.37,2013-08-06 16:57:00,
2013-08-06 12:02:00,72.8,70.0,29.78,SW,221,3.5,3.5,91,0.00,,FEW,0.08,WeatherDisplay:10.37,2013-08-06 17:02:00,
2013-08-06 12:07:00,73.3,70.5,29.78,SE,130,9.2,9.2,91,0.00,,FEW,0.08,WeatherDisplay:10.37,2013-08-06 17:07:00,
2013-08-06 12:12:00,74.4,71.6,29.78,SE,126,4.0,4.0,91,0.00,,FEW,0.08,WeatherDisplay:10.37,2013-08-06 17:12:00,
2013-08-06 12:17:00,75.1,71.6,29.78,SE,144,2.3,2.3,89,0.00,,FEW,0.08,WeatherDisplay:10.37,2013-08-06 17:17:00,
2013-08-06 12:22:00,75.8,72.0,29.77,SSE,162,5.0,5.0,88,0.00,,FEW,0.08,WeatherDisplay:10.37,2013-08-06 17:22:00,
2013-08-06 12:27:00,75.4,70.9,29.77,ESE,106,6.0,6.0,86,0.00,,FEW,0.08,WeatherDisplay:10.37,2013-08-06 17:27:00,
2013-08-06 12:32:00,75.8,71.3,29.76,SSE,151,1.2,0.0,86,0.00,,FEW,0.08,WeatherDisplay:10.37,2013-08-06 17:32:00,
2013-08-06 12:37:00,76.0,71.2,29.76,East,88,4.6,4.6,85,0.00,,FEW,0.08,WeatherDisplay:10.37,2013-08-06 17:37:00,
2013-08-06 12:42:00,76.8,71.2,29.76,ESE,121,10.4,10.4,83,0.00,,FEW,0.08,WeatherDisplay:10.37,2013-08-06 17:42:00,
2013-08-06 12:47:00,77.6,71.7,29.76,East,85,3.5,3.5,82,0.00,,FEW,0.08,WeatherDisplay:10.37,2013-08-06 17:47:00,
2013-08-06 12:52:00,78.3,71.6,29.76,SE,142,3.5,3.5,80,0.00,,FEW,0.08,WeatherDisplay:10.37,2013-08-06 17:52:00,
2013-08-06 12:57:00,78.5,72.2,29.76,SE,127,5.8,5.8,81,0.00,,FEW,0.08,WeatherDisplay:10.37,2013-08-06 17:57:00,
2013-08-06 13:02:00,78.6,71.5,29.76,SE,140,3.5,3.5,79,0.00,,FEW,0.08,WeatherDisplay:10.37,2013-08-06 18:02:00,
2013-08-06 13:07:00,78.5,71.1,29.76,ESE,106,5.8,5.8,78,0.00,,FEW,0.08,WeatherDisplay:10.37,2013-08-06 18:07:00,
2013-08-06 13:12:00,78.6,71.2,29.76,SE,130,3.5,3.5,78,0.00,,FEW,0.08,WeatherDisplay:10.37,2013-08-06 18:12:00,
2013-08-06 13:17:00,78.6,71.2,29.76,ESE,119,2.3,2.3,78,0.00,,FEW,0.08,WeatherDisplay:10.37,2013-08-06 18:17:00,
2013-08-06 13:22:00,78.6,71.5,29.75,SE,137,4.6,4.6,79,0.00,,FEW,0.08,WeatherDisplay:10.37,2013-08-06 18:22:00,
2013-08-06 13:27:00,78.6,71.9,29.75,SE,138,1.2,1.2,80,0.00,,FEW,0.08,WeatherDisplay:10.37,2013-08-06 18:27:00,
2013-08-06 13:32:00,79.0,73.0,29.74,ESE,109,0.0,0.0,82,0.00,,FEW,0.08,WeatherDisplay:10.37,2013-08-06 18:32:00,
2013-08-06 13:37:00,79.8,72.3,29.74,East,96,5.8,5.8,78,0.00,,FEW,0.08,WeatherDisplay:10.37,2013-08-06 18:37:00,
2013-08-06 13:42:00,80.1,71.8,29.74,ESE,117,4.6,4.6,76,0.00,,FEW,0.08,WeatherDisplay:10.37,2013-08-06 18:42:00,
2013-08-06 13:47:00,80.5,73.0,29.74,East,93,2.3,3.4,78,0.00,,FEW,0.08,WeatherDisplay:10.37,2013-08-06 18:47:00,
2013-08-06 13:52:00,81.4,73.9,29.74,ESE,107,4.0,4.0,78,0.00,,FEW,0.08,WeatherDisplay:10.37,2013-08-06 18:52:00,
2013-08-06 13:57:00,82.0,73.3,29.74,East,92,2.3,2.3,75,0.00,,FEW,0.08,WeatherDisplay:10.37,2013-08-06 18:57:00,
2013-08-06 14:02:00,82.2,74.3,29.74,SE,125,0.0,0.0,77,0.00,,FEW,0.08,WeatherDisplay:10.37,2013-08-06 19:02:00,
2013-08-06 14:07:00,82.4,72.9,29.74,SE,137,0.0,0.0,73,0.00,,FEW,0.08,WeatherDisplay:10.37,2013-08-06 19:07:00,
2013-08-06 14:12:00,82.4,73.3,29.74,SE,137,1.2,1.2,74,0.00,,FEW,0.08,WeatherDisplay:10.37,2013-08-06 19:12:00,
2013-08-06 14:17:00,82.4,72.9,29.74,SE,138,3.5,3.5,73,0.00,,FEW,0.08,WeatherDisplay:10.37,2013-08-06 19:17:00,
2013-08-06 14:23:00,82.8,74.5,29.73,SE,126,1.2,1.2,76,0.00,,FEW,0.08,WeatherDisplay:10.37,2013-08-06 19:23:00,
2013-08-06 14:28:00,83.4,73.8,29.73,WSW,240,1.2,0.0,73,0.00,,FEW,0.08,WeatherDisplay:10.37,2013-08-06 19:28:00,
2013-08-06 14:33:00,83.8,73.8,29.73,SW,222,1.2,0.0,72,0.00,,FEW,0.08,WeatherDisplay:10.37,2013-08-06 19:33:00,
2013-08-06 14:38:00,84.1,73.7,29.72,SW,216,1.2,0.0,71,0.00,,FEW,0.08,WeatherDisplay:10.37,2013-08-06 19:38:00,
2013-08-06 14:43:00,84.3,73.9,29.72,SW,216,0.0,0.0,71,0.00,,FEW,0.08,WeatherDisplay:10.37,2013-08-06 19:43:00,
2013-08-06 14:48:00,84.3,74.3,29.72,SSW,207,1.2,0.0,72,0.00,,FEW,0.08,WeatherDisplay:10.37,2013-08-06 19:48:00,
2013-08-06 14:53:00,84.1,74.1,29.71,SE,130,0.0,0.0,72,0.00,,FEW,0.08,WeatherDisplay:10.37,2013-08-06 19:53:00,
2013-08-06 14:58:00,84.0,74.4,29.71,SE,130,1.2,0.0,73,0.00,,FEW,0.08,WeatherDisplay:10.37,2013-08-06 19:58:00,
2013-08-06 15:03:00,83.8,73.8,29.71,SE,130,1.2,1.2,72,0.00,,FEW,0.08,WeatherDisplay:10.37,2013-08-06 20:03:00,
2013-08-06 15:08:00,84.0,75.2,29.70,SE,130,1.2,1.2,75,0.00,,FEW,0.08,WeatherDisplay:10.37,2013-08-06 20:08:00,
2013-08-06 15:13:00,84.1,74.9,29.70,East,98,1.2,1.2,74,0.00,,FEW,0.08,WeatherDisplay:10.37,2013-08-06 20:13:00,
2013-08-06 15:18:00,84.1,74.5,29.70,East,98,0.0,0.0,73,0.00,,FEW,0.08,WeatherDisplay:10.37,2013-08-06 20:18:00,
2013-08-06 15:23:00,84.1,75.3,29.70,East,98,2.3,2.3,75,0.00,,FEW,0.08,WeatherDisplay:10.37,2013-08-06 20:23:00,
2013-08-06 15:28:00,84.0,75.2,29.70,East,98,1.2,1.2,75,0.00,,FEW,0.08,WeatherDisplay:10.37,2013-08-06 20:28:00,
2013-08-06 15:32:00,83.8,75.0,29.70,East,98,1.2,1.2,75,0.00,,FEW,0.08,WeatherDisplay:10.37,2013-08-06 20:32:00,
2013-08-06 15:37:00,83.4,74.6,29.70,East,98,0.0,0.0,75,0.00,,FEW,0.08,WeatherDisplay:10.37,2013-08-06 20:37:00,
2013-08-06 15:42:00,83.2,74.8,29.70,East,98,0.0,0.0,76,0.00,,FEW,0.08,WeatherDisplay:10.37,2013-08-06 20:42:00,
2013-08-06 15:47:00,83.2,75.2,29.70,East,98,0.0,0.0,77,0.00,,FEW,0.08,WeatherDisplay:10.37,2013-08-06 20:47:00,
2013-08-06 15:52:00,82.8,74.8,29.70,East,98,0.0,0.0,77,0.00,,FEW,0.08,WeatherDisplay:10.37,2013-08-06 20:52:00,
2013-08-06 15:57:00,82.6,74.7,29.70,East,98,0.0,0.0,77,0.00,,FEW,0.08,WeatherDisplay:10.37,2013-08-06 20:57:00,
2013-08-06 16:02:00,82.6,74.3,29.70,East,98,0.0,0.0,76,0.00,,FEW,0.08,WeatherDisplay:10.37,2013-08-06 21:02:00,
2013-08-06 16:07:00,82.8,75.2,29.70,East,98,0.0,0.0,78,0.00,,FEW,0.08,WeatherDisplay:10.37,2013-08-06 21:07:00,
2013-08-06 16:12:00,83.2,75.6,29.70,East,98,1.2,1.2,78,0.00,,FEW,0.08,WeatherDisplay:10.37,2013-08-06 21:12:00,
2013-08-06 16:17:00,84.0,76.0,29.70,East,98,0.0,0.0,77,0.00,,FEW,0.08,WeatherDisplay:10.37,2013-08-06 21:17:00,
2013-08-06 16:22:00,84.9,74.9,29.70,East,98,2.3,2.3,72,0.00,,FEW,0.08,WeatherDisplay:10.37,2013-08-06 21:22:00,
2013-08-06 16:27:00,85.7,75.2,29.70,East,98,2.3,2.3,71,0.00,,FEW,0.08,WeatherDisplay:10.37,2013-08-06 21:27:00,
2013-08-06 16:32:00,85.9,75.4,29.70,East,98,1.2,1.2,71,0.00,,FEW,0.08,WeatherDisplay:10.37,2013-08-06 21:32:00,
2013-08-06 16:37:00,85.7,75.6,29.70,East,98,0.0,0.0,72,0.00,,FEW,0.08,WeatherDisplay:10.37,2013-08-06 21:37:00,
2013-08-06 16:42:00,85.1,75.5,29.69,East,97,1.2,1.2,73,0.00,,FEW,0.08,WeatherDisplay:10.37,2013-08-06 21:42:00,
2013-08-06 16:47:00,84.7,75.5,29.69,East,98,1.2,0.0,74,0.00,,FEW,0.08,WeatherDisplay:10.37,2013-08-06 21:47:00,
2013-08-06 16:52:00,84.3,76.3,29.69,ESE,104,0.0,0.0,77,0.00,,FEW,0.08,WeatherDisplay:10.37,2013-08-06 21:52:00,
2013-08-06 16:57:00,84.0,76.0,29.68,ESE,119,1.2,0.0,77,0.00,,FEW,0.08,WeatherDisplay:10.37,2013-08-06 21:57:00,
2013-08-06 17:02:00,84.3,76.3,29.68,ESE,119,1.2,0.0,77,0.00,,FEW,0.08,WeatherDisplay:10.37,2013-08-06 22:02:00,
2013-08-06 17:07:00,85.1,76.3,29.68,ESE,114,1.0,0.0,75,0.00,,FEW,0.08,WeatherDisplay:10.37,2013-08-06 22:07:00,
2013-08-06 17:12:00,85.7,76.5,29.67,ESE,108,1.2,1.2,74,0.00,,FEW,0.08,WeatherDisplay:10.37,2013-08-06 22:12:00,
2013-08-06 17:17:00,85.9,76.2,29.67,ESE,123,3.5,0.0,73,0.00,,FEW,0.08,WeatherDisplay:10.37,2013-08-06 22:17:00,
2013-08-06 17:22:00,86.5,76.4,29.67,SE,126,0.0,0.0,72,0.00,,FEW,0.08,WeatherDisplay:10.37,2013-08-06 22:22:00,
2013-08-06 17:27:00,86.7,76.6,29.67,SE,126,0.0,0.0,72,0.00,,FEW,0.08,WeatherDisplay:10.37,2013-08-06 22:27:00,
2013-08-06 17:32:00,86.7,77.0,29.67,SE,126,0.0,0.0,73,0.00,,FEW,0.08,WeatherDisplay:10.37,2013-08-06 22:32:00,
2013-08-06 17:37:00,86.5,76.8,29.67,SE,126,1.2,0.0,73,0.00,,FEW,0.08,WeatherDisplay:10.37,2013-08-06 22:37:00,
2013-08-06 17:42:00,86.5,76.0,29.66,SE,126,0.0,0.0,71,0.00,,FEW,0.08,WeatherDisplay:10.37,2013-08-06 22:42:00,
2013-08-06 17:47:00,87.0,76.5,29.66,SE,126,0.0,0.1,71,0.00,,FEW,0.08,WeatherDisplay:10.37,2013-08-06 22:47:00,
2013-08-06 17:52:00,87.2,76.6,29.66,ESE,117,1.2,0.0,71,0.00,,FEW,0.08,WeatherDisplay:10.37,2013-08-06 22:52:00,
2013-08-06 17:57:00,87.2,77.9,29.66,ESE,117,0.0,0.0,74,0.00,,FEW,0.08,WeatherDisplay:10.37,2013-08-06 22:57:00,
2013-08-06 18:02:00,86.7,77.8,29.65,ESE,117,0.0,0.0,75,0.00,,FEW,0.08,WeatherDisplay:10.37,2013-08-06 23:02:00,
2013-08-06 18:07:00,86.5,76.8,29.65,ESE,117,0.0,0.4,73,0.00,,FEW,0.08,WeatherDisplay:10.37,2013-08-06 23:07:00,
2013-08-06 18:12:00,86.3,76.6,29.65,ESE,117,0.0,0.0,73,0.00,,FEW,0.08,WeatherDisplay:10.37,2013-08-06 23:12:00,
2013-08-06 18:17:00,86.3,77.0,29.65,ESE,117,1.0,0.0,74,0.00,,FEW,0.08,WeatherDisplay:10.37,2013-08-06 23:17:00,
2013-08-06 18:22:00,86.5,76.4,29.65,ESE,117,0.0,0.0,72,0.00,,FEW,0.08,WeatherDisplay:10.37,2013-08-06 23:22:00,
2013-08-06 18:27:00,87.2,77.1,29.64,ESE,117,0.0,0.0,72,0.00,,FEW,0.08,WeatherDisplay:10.37,2013-08-06 23:27:00,
2013-08-06 18:32:00,87.6,76.6,29.64,ESE,117,0.0,0.0,70,0.00,,FEW,0.08,WeatherDisplay:10.37,2013-08-06 23:32:00,
2013-08-06 18:37:00,87.8,76.4,29.64,ESE,117,0.0,0.0,69,0.00,,FEW,0.08,WeatherDisplay:10.37,2013-08-06 23:37:00,
2013-08-06 18:42:00,88.2,76.7,29.64,ESE,117,0.0,0.0,69,0.00,,FEW,0.08,WeatherDisplay:10.37,2013-08-06 23:42:00,
2013-08-06 18:48:00,88.0,76.5,29.64,ESE,117,1.2,1.2,69,0.00,,FEW,0.08,WeatherDisplay:10.37,2013-08-06 23:48:00,
2013-08-06 18:53:00,87.8,76.8,29.64,ESE,117,0.0,0.0,70,0.00,,FEW,0.08,WeatherDisplay:10.37,2013-08-06 23:53:00,
2013-08-06 18:58:00,87.6,76.6,29.64,ESE,117,1.2,1.2,70,0.00,,FEW,0.08,WeatherDisplay:10.37,2013-08-06 23:58:00,
2013-08-06 19:03:00,87.4,76.4,29.64,ESE,117,0.0,0.0,70,0.00,,FEW,0.08,WeatherDisplay:10.37,2013-08-07 00:03:00,
2013-08-06 19:08:00,87.0,76.9,29.64,ESE,117,0.0,0.0,72,0.00,,FEW,0.08,WeatherDisplay:10.37,2013-08-07 00:08:00,
2013-08-06 19:13:00,86.7,76.6,29.64,ESE,117,1.2,0.0,72,0.00,,FEW,0.08,WeatherDisplay:10.37,2013-08-07 00:13:00,
2013-08-06 19:18:00,86.5,76.8,29.64,ESE,117,0.0,0.0,73,0.00,,FEW,0.08,WeatherDisplay:10.37,2013-08-07 00:18:00,
2013-08-06 19:23:00,86.1,76.4,29.64,ESE,117,0.0,0.0,73,0.00,,FEW,0.08,WeatherDisplay:10.37,2013-08-07 00:23:00,
2013-08-06 19:28:00,85.9,76.6,29.64,ESE,117,0.0,0.0,74,0.00,,FEW,0.08,WeatherDisplay:10.37,2013-08-07 00:28:00,
2013-08-06 19:33:00,85.9,76.6,29.64,ESE,117,0.0,0.0,74,0.00,,FEW,0.08,WeatherDisplay:10.37,2013-08-07 00:33:00,
2013-08-06 19:38:00,85.9,77.1,29.65,ESE,117,0.0,0.0,75,0.00,,FEW,0.08,WeatherDisplay:10.37,2013-08-07 00:38:00,
2013-08-06 19:43:00,85.9,77.1,29.65,ESE,117,1.2,1.2,75,0.00,,FEW,0.08,WeatherDisplay:10.37,2013-08-07 00:43:00,
2013-08-06 19:48:00,85.5,76.7,29.65,ESE,117,1.2,0.0,75,0.00,,FEW,0.08,WeatherDisplay:10.37,2013-08-07 00:48:00,
2013-08-06 19:53:00,84.9,76.5,29.65,ESE,117,0.0,0.0,76,0.00,,FEW,0.08,WeatherDisplay:10.37,2013-08-07 00:53:00,
2013-08-06 19:58:00,84.3,76.7,29.65,ESE,117,0.0,0.0,78,0.00,,FEW,0.08,WeatherDisplay:10.37,2013-08-07 00:58:00,
2013-08-06 20:03:00,83.8,76.2,29.65,ESE,117,0.0,0.0,78,0.00,,FEW,0.08,WeatherDisplay:10.37,2013-08-07 01:03:00,
2013-08-06 20:08:00,83.4,76.6,29.65,ESE,117,0.0,0.0,80,0.00,,FEW,0.08,WeatherDisplay:10.37,2013-08-07 01:08:00,
2013-08-06 20:13:00,83.0,76.2,29.65,ESE,117,0.0,0.0,80,0.00,,FEW,0.08,WeatherDisplay:10.37,2013-08-07 01:13:00,
2013-08-06 20:18:00,82.6,76.2,29.66,ESE,117,0.0,0.0,81,0.00,,FEW,0.08,WeatherDisplay:10.37,2013-08-07 01:18:00,
2013-08-06 20:23:00,82.2,76.2,29.66,ESE,117,0.0,0.0,82,0.00,,FEW,0.08,WeatherDisplay:10.37,2013-08-07 01:23:00,
2013-08-06 20:28:00,81.8,76.1,29.66,ESE,117,0.0,0.0,83,0.00,,FEW,0.08,WeatherDisplay:10.37,2013-08-07 01:28:00,
2013-08-06 20:33:00,81.4,75.7,29.66,ESE,117,0.0,0.0,83,0.00,,FEW,0.08,WeatherDisplay:10.37,2013-08-07 01:33:00,
2013-08-06 20:38:00,81.1,75.8,29.66,ESE,117,0.0,0.0,84,0.00,,FEW,0.08,WeatherDisplay:10.37,2013-08-07 01:38:00,
2013-08-06 20:43:00,80.9,76.0,29.66,ESE,117,0.0,0.0,85,0.00,,FEW,0.08,WeatherDisplay:10.37,2013-08-07 01:43:00,
2013-08-06 20:48:00,80.5,75.9,29.66,ESE,117,0.0,0.0,86,0.00,,FEW,0.08,WeatherDisplay:10.37,2013-08-07 01:48:00,
2013-08-06 20:53:00,80.3,75.7,29.66,ESE,117,0.0,0.0,86,0.00,,FEW,0.08,WeatherDisplay:10.37,2013-08-07 01:53:00,
2013-08-06 20:58:00,79.9,75.3,29.66,ESE,117,0.0,0.0,86,0.00,,FEW,0.08,WeatherDisplay:10.37,2013-08-07 01:58:00,
2013-08-06 21:03:00,79.8,75.6,29.66,ESE,117,0.0,0.0,87,0.00,,FEW,0.08,WeatherDisplay:10.37,2013-08-07 02:03:00,
2013-08-06 21:08:00,79.6,75.7,29.67,ESE,117,0.0,0.0,88,0.00,,FEW,0.08,WeatherDisplay:10.37,2013-08-07 02:08:00,
2013-08-06 21:13:00,79.4,75.5,29.67,ESE,117,2.0,2.0,88,0.00,,FEW,0.08,WeatherDisplay:10.37,2013-08-07 02:13:00,
2013-08-06 21:18:00,79.2,75.7,29.67,ESE,117,0.0,0.0,89,0.00,,FEW,0.08,WeatherDisplay:10.37,2013-08-07 02:18:00,
2013-08-06 21:23:00,79.2,75.7,29.67,ESE,117,0.0,0.0,89,0.00,,FEW,0.08,WeatherDisplay:10.37,2013-08-07 02:23:00,
2013-08-06 21:28:00,79.0,75.5,29.67,ESE,117,1.2,0.0,89,0.00,,FEW,0.08,WeatherDisplay:10.37,2013-08-07 02:28:00,
2013-08-06 21:33:00,78.8,75.3,29.68,ESE,117,0.0,0.0,89,0.00,,FEW,0.08,WeatherDisplay:10.37,2013-08-07 02:33:00,
2013-08-06 21:38:00,78.6,75.4,29.68,ESE,117,0.0,0.0,90,0.00,,FEW,0.08,WeatherDisplay:10.37,2013-08-07 02:38:00,
2013-08-06 21:43:00,78.6,75.4,29.68,ESE,117,2.0,2.0,90,0.00,,FEW,0.08,WeatherDisplay:10.37,2013-08-07 02:43:00,
2013-08-06 21:48:00,78.5,75.3,29.68,ESE,117,0.0,0.0,90,0.00,,FEW,0.08,WeatherDisplay:10.37,2013-08-07 02:48:00,
2013-08-06 21:53:00,78.5,75.7,29.68,ESE,117,0.0,0.0,91,0.00,,FEW,0.08,WeatherDisplay:10.37,2013-08-07 02:53:00,
2013-08-06 21:58:00,78.5,75.7,29.68,ESE,117,2.0,2.0,91,0.00,,FEW,0.08,WeatherDisplay:10.37,2013-08-07 02:58:00,
2013-08-06 22:03:00,78.3,75.5,29.68,ESE,117,0.0,0.0,91,0.00,,FEW,0.08,WeatherDisplay:10.37,2013-08-07 03:03:00,
2013-08-06 22:08:00,78.3,75.5,29.68,ESE,117,1.2,0.0,91,0.00,,FEW,0.08,WeatherDisplay:10.37,2013-08-07 03:08:00,
2013-08-06 22:13:00,78.3,75.5,29.68,ESE,117,1.2,0.0,91,0.00,,FEW,0.08,WeatherDisplay:10.37,2013-08-07 03:13:00,
2013-08-06 22:18:00,78.1,75.6,29.68,ESE,117,0.0,0.0,92,0.00,,FEW,0.08,WeatherDisplay:10.37,2013-08-07 03:18:00,
2013-08-06 22:23:00,78.1,75.6,29.69,ESE,117,0.0,0.0,92,0.00,,FEW,0.08,WeatherDisplay:10.37,2013-08-07 03:23:00,
2013-08-06 22:28:00,78.1,75.6,29.69,ESE,117,0.0,0.0,92,0.00,,FEW,0.08,WeatherDisplay:10.37,2013-08-07 03:28:00,
2013-08-06 22:33:00,77.9,75.4,29.69,ESE,117,1.2,1.2,92,0.00,,FEW,0.08,WeatherDisplay:10.37,2013-08-07 03:33:00,
2013-08-06 22:38:00,77.9,75.4,29.69,ESE,117,0.0,0.0,92,0.00,,FEW,0.08,WeatherDisplay:10.37,2013-08-07 03:38:00,
2013-08-06 22:43:00,77.7,75.2,29.69,ESE,117,0.0,0.0,92,0.00,,FEW,0.08,WeatherDisplay:10.37,2013-08-07 03:43:00,
2013-08-06 22:48:00,77.7,75.2,29.69,ESE,117,0.0,0.0,92,0.00,,FEW,0.08,WeatherDisplay:10.37,2013-08-07 03:48:00,
2013-08-06 22:53:00,77.6,75.1,29.69,ESE,117,1.2,0.0,92,0.00,,FEW,0.08,WeatherDisplay:10.37,2013-08-07 03:53:00,
2013-08-06 22:58:00,77.7,75.5,29.69,ESE,117,0.0,0.1,93,0.00,,FEW,0.08,WeatherDisplay:10.37,2013-08-07 03:58:00,
2013-08-06 23:01:00,77.7,75.2,29.69,ESE,117,0.0,0.0,92,0.00,,FEW,0.08,WeatherDisplay:10.37,2013-08-07 04:01:00,
2013-08-06 23:06:00,77.6,75.4,29.69,SE,124,0.0,0.1,93,0.00,,FEW,0.08,WeatherDisplay:10.37,2013-08-07 04:06:00,
2013-08-06 23:11:00,77.6,75.4,29.69,SE,124,0.0,0.0,93,0.00,,FEW,0.08,WeatherDisplay:10.37,2013-08-07 04:11:00,
2013-08-06 23:16:00,77.6,75.4,29.69,SE,124,0.0,0.0,93,0.00,,FEW,0.08,WeatherDisplay:10.37,2013-08-07 04:16:00,
2013-08-06 23:21:00,77.6,75.4,29.69,SE,126,3.5,3.5,93,0.00,,FEW,0.08,WeatherDisplay:10.37,2013-08-07 04:21:00,
2013-08-06 23:26:00,77.7,75.5,29.69,SE,126,1.2,0.0,93,0.00,,FEW,0.08,WeatherDisplay:10.37,2013-08-07 04:26:00,
2013-08-06 23:31:00,77.7,75.5,29.69,SE,125,2.3,2.3,93,0.00,,FEW,0.08,WeatherDisplay:10.37,2013-08-07 04:31:00,
2013-08-06 23:36:00,77.9,75.7,29.68,ESE,123,1.0,1.0,93,0.00,,FEW,0.08,WeatherDisplay:10.37,2013-08-07 04:36:00,
2013-08-06 23:41:00,77.9,75.7,29.68,ESE,121,1.2,1.2,93,0.00,,FEW,0.08,WeatherDisplay:10.37,2013-08-07 04:41:00,
2013-08-06 23:46:00,77.9,75.7,29.68,ESE,121,1.2,0.0,93,0.00,,FEW,0.08,WeatherDisplay:10.37,2013-08-07 04:46:00,
2013-08-06 23:51:00,77.9,75.7,29.69,ESE,121,0.0,0.0,93,0.00,,FEW,0.08,WeatherDisplay:10.37,2013-08-07 04:51:00,
2013-08-06 23:56:00,77.7,75.5,29.69,ESE,121,0.0,0.0,93,0.00,,FEW,0.08,WeatherDisplay:10.37,2013-08-07 04:56:00,